createdAt,value
2022-11-25T00:01:28.831Z,43.70
2022-11-25T00:03:57.790Z,43.70
2022-11-25T00:06:30.581Z,43.70
2022-11-25T00:09:00.511Z,43.60
2022-11-25T00:11:28.030Z,43.90
2022-11-25T00:13:56.207Z,43.60
2022-11-25T00:16:24.683Z,43.60
2022-11-25T00:18:53.563Z,43.60
2022-11-25T00:21:23.257Z,43.60
2022-11-25T00:23:55.974Z,43.60
2022-11-25T00:26:24.521Z,43.60
2022-11-25T00:28:52.603Z,43.60
2022-11-25T00:31:23.564Z,43.60
2022-11-25T00:33:51.660Z,43.60
2022-11-25T00:36:24.650Z,43.60
2022-11-25T00:38:56.742Z,43.60
2022-11-25T00:41:44.126Z,43.60
2022-11-25T00:44:33.665Z,43.60
2022-11-25T00:47:01.559Z,43.60
2022-11-25T00:49:29.018Z,43.60
2022-11-25T00:51:56.360Z,43.50
2022-11-25T00:54:23.652Z,43.50
2022-11-25T00:56:51.406Z,44.10
2022-11-25T00:59:19.186Z,43.50
2022-11-25T01:01:46.375Z,43.50
2022-11-25T01:04:13.698Z,43.60
2022-11-25T01:06:40.806Z,43.60
2022-11-25T01:09:09.227Z,43.50
2022-11-25T01:11:36.341Z,43.50
2022-11-25T01:14:03.698Z,43.50
2022-11-25T01:16:31.259Z,43.50
2022-11-25T01:19:00.335Z,43.50
2022-11-25T01:21:30.155Z,43.50
2022-11-25T01:23:58.685Z,43.50
2022-11-25T01:26:26.600Z,43.50
2022-11-25T01:28:56.164Z,43.50
2022-11-25T01:31:25.405Z,43.50
2022-11-25T01:33:58.504Z,43.50
2022-11-25T01:36:25.687Z,43.50
2022-11-25T01:38:55.070Z,43.40
2022-11-25T01:41:23.621Z,43.50
2022-11-25T01:44:12.529Z,43.50
2022-11-25T01:47:15.944Z,43.40
2022-11-25T01:49:50.680Z,43.40
2022-11-25T01:52:34.294Z,43.40
2022-11-25T01:55:06.937Z,43.40
2022-11-25T01:57:48.973Z,43.40
2022-11-25T02:00:16.905Z,43.40
2022-11-25T02:02:44.338Z,43.50
2022-11-25T02:05:15.424Z,43.40
2022-11-25T02:07:45.881Z,43.40
2022-11-25T02:10:18.383Z,43.40
2022-11-25T02:12:46.993Z,43.40
2022-11-25T02:15:15.529Z,43.40
2022-11-25T02:17:44.155Z,43.40
2022-11-25T02:20:15.370Z,43.40
2022-11-25T02:23:07.567Z,43.30
2022-11-25T02:25:40.700Z,43.30
2022-11-25T02:28:17.954Z,43.30
2022-11-25T02:30:46.321Z,43.30
2022-11-25T02:33:14.497Z,43.30
2022-11-25T02:35:44.047Z,43.20
2022-11-25T02:38:20.665Z,43.20
2022-11-25T02:41:01.676Z,43.20
2022-11-25T02:43:28.864Z,43.20
2022-11-25T02:46:02.400Z,43.20
2022-11-25T02:49:00.892Z,43.20
2022-11-25T02:51:20.726Z,43.20
2022-11-25T02:53:47.988Z,43.20
2022-11-25T02:56:18.659Z,43.20
2022-11-25T02:58:45.939Z,43.20
2022-11-25T03:01:13.015Z,43.20
2022-11-25T03:03:40.420Z,43.20
2022-11-25T03:06:08.213Z,43.10
2022-11-25T03:08:36.214Z,43.10
2022-11-25T03:11:03.226Z,43.10
2022-11-25T03:13:30.262Z,43.10
2022-11-25T03:15:57.273Z,43.20
2022-11-25T03:18:24.398Z,43.20
2022-11-25T03:20:55.286Z,43.10
2022-11-25T03:23:22.693Z,43.10
2022-11-25T03:25:50.127Z,43.10
2022-11-25T03:28:17.337Z,43.10
2022-11-25T03:30:44.514Z,43.10
2022-11-25T03:33:11.606Z,43.10
2022-11-25T03:35:38.695Z,43.10
2022-11-25T03:38:05.725Z,43.10
2022-11-25T03:40:32.722Z,43.10
2022-11-25T03:42:59.724Z,43.10
2022-11-25T03:45:26.777Z,43.10
2022-11-25T03:47:53.772Z,43.10
2022-11-25T03:50:20.945Z,43.10
2022-11-25T03:52:47.972Z,43.10
2022-11-25T03:55:15.117Z,43.00
2022-11-25T03:57:42.291Z,43.10
2022-11-25T04:00:12.884Z,43.10
2022-11-25T04:02:39.961Z,43.00
2022-11-25T04:05:07.463Z,43.00
2022-11-25T04:07:34.573Z,43.00
2022-11-25T04:10:01.681Z,43.00
2022-11-25T04:12:48.594Z,43.00
2022-11-25T04:15:17.160Z,43.00
2022-11-25T04:17:44.361Z,43.00
2022-11-25T04:20:12.834Z,43.10
2022-11-25T04:22:40.044Z,43.10
2022-11-25T04:25:07.945Z,43.00
2022-11-25T04:27:34.979Z,43.00
2022-11-25T04:30:02.077Z,43.00
2022-11-25T04:32:29.209Z,43.00
2022-11-25T04:34:56.183Z,43.00
2022-11-25T04:37:23.265Z,43.00
2022-11-25T04:39:50.445Z,42.90
2022-11-25T04:42:34.541Z,42.90
2022-11-25T04:47:50.765Z,42.90
2022-11-25T04:50:21.436Z,42.90
2022-11-25T04:52:48.627Z,42.90
2022-11-25T04:55:15.830Z,42.90
2022-11-25T04:57:42.881Z,43.40
2022-11-25T05:00:10.972Z,42.80
2022-11-25T05:02:38.096Z,42.80
2022-11-25T05:05:05.770Z,42.80
2022-11-25T05:07:33.077Z,42.80
2022-11-25T05:10:00.224Z,42.80
2022-11-25T05:12:28.933Z,42.80
2022-11-25T05:14:56.993Z,42.80
2022-11-25T05:17:26.892Z,42.80
2022-11-25T05:19:53.971Z,42.80
2022-11-25T05:22:23.549Z,42.80
2022-11-25T05:24:50.595Z,42.80
2022-11-25T05:27:18.157Z,42.80
2022-11-25T05:29:45.518Z,42.80
2022-11-25T05:32:12.918Z,42.80
2022-11-25T05:34:40.332Z,42.80
2022-11-25T05:37:08.041Z,42.80
2022-11-25T05:39:35.271Z,42.50
2022-11-25T05:42:02.437Z,42.30
2022-11-25T05:44:29.530Z,42.30
2022-11-25T05:46:56.669Z,42.30
2022-11-25T05:49:23.718Z,42.30
2022-11-25T05:51:50.996Z,42.30
2022-11-25T05:54:18.102Z,42.20
2022-11-25T05:56:45.146Z,42.10
2022-11-25T05:59:12.225Z,42.10
2022-11-25T06:01:39.291Z,42.00
2022-11-25T06:04:06.645Z,42.00
2022-11-25T06:06:34.260Z,41.90
2022-11-25T06:09:01.483Z,41.90
2022-11-25T06:11:28.495Z,41.80
2022-11-25T06:13:58.213Z,41.80
2022-11-25T06:16:26.021Z,41.70
2022-11-25T06:18:53.133Z,41.70
2022-11-25T06:21:20.627Z,41.70
2022-11-25T06:23:47.980Z,41.70
2022-11-25T06:26:18.236Z,41.70
2022-11-25T06:28:45.769Z,41.60
2022-11-25T06:31:19.304Z,41.60
2022-11-25T06:33:51.067Z,41.60
2022-11-25T06:36:19.573Z,41.50
2022-11-25T06:38:52.423Z,41.50
2022-11-25T06:41:20.618Z,41.50
2022-11-25T06:43:48.077Z,41.40
2022-11-25T06:46:23.026Z,41.30
2022-11-25T06:48:53.131Z,41.30
2022-11-25T06:51:20.650Z,41.30
2022-11-25T06:53:48.663Z,41.30
2022-11-25T06:56:19.635Z,41.10
2022-11-25T06:58:48.270Z,41.00
2022-11-25T07:01:19.013Z,40.90
2022-11-25T07:03:48.057Z,40.90
2022-11-25T07:06:16.722Z,41.00
2022-11-25T07:08:44.773Z,41.40
2022-11-25T07:11:22.243Z,41.50
2022-11-25T07:13:59.992Z,41.30
2022-11-25T07:16:28.645Z,41.20
2022-11-25T07:18:56.024Z,41.30
2022-11-25T07:21:25.512Z,41.20
2022-11-25T07:23:53.685Z,41.10
2022-11-25T07:26:23.734Z,41.10
2022-11-25T07:28:52.287Z,41.40
2022-11-25T07:31:28.667Z,41.70
2022-11-25T07:34:01.699Z,41.90
2022-11-25T07:36:30.584Z,42.20
2022-11-25T07:39:00.173Z,42.30
2022-11-25T07:41:29.024Z,42.30
2022-11-25T07:44:04.619Z,42.30
2022-11-25T07:46:34.937Z,42.20
2022-11-25T07:49:06.835Z,42.10
2022-11-25T07:51:38.072Z,42.00
2022-11-25T07:54:09.054Z,42.00
2022-11-25T07:56:37.552Z,42.50
2022-11-25T07:59:08.309Z,41.90
2022-11-25T08:01:35.715Z,41.80
2022-11-25T08:04:02.743Z,41.70
2022-11-25T08:06:30.191Z,41.50
2022-11-25T08:08:58.235Z,41.50
2022-11-25T08:11:27.904Z,41.30
2022-11-25T08:13:55.706Z,41.30
2022-11-25T08:16:28.056Z,41.10
2022-11-25T08:18:55.887Z,41.10
2022-11-25T08:21:23.355Z,41.20
2022-11-25T08:23:52.685Z,41.20
2022-11-25T08:26:30.420Z,41.20
2022-11-25T08:28:58.983Z,41.30
2022-11-25T08:31:35.695Z,41.30
2022-11-25T08:34:03.431Z,41.30
2022-11-25T08:36:31.597Z,41.30
2022-11-25T08:39:01.033Z,41.80
2022-11-25T08:41:31.714Z,41.20
2022-11-25T08:44:01.021Z,41.40
2022-11-25T08:46:33.557Z,41.90
2022-11-25T08:49:01.099Z,41.50
2022-11-25T08:51:31.109Z,41.50
2022-11-25T08:53:58.849Z,41.50
2022-11-25T08:56:26.667Z,41.40
2022-11-25T08:58:55.248Z,41.30
2022-11-25T09:01:23.643Z,41.20
2022-11-25T09:03:53.311Z,41.20
2022-11-25T09:06:20.677Z,41.10
2022-11-25T09:08:48.365Z,41.00
2022-11-25T09:11:16.006Z,41.00
2022-11-25T09:13:43.218Z,40.90
2022-11-25T09:16:10.301Z,40.80
2022-11-25T09:18:38.401Z,40.80
2022-11-25T09:21:15.281Z,40.70
2022-11-25T09:23:42.321Z,40.70
2022-11-25T09:26:27.289Z,40.70
2022-11-25T09:28:55.445Z,40.70
2022-11-25T09:31:23.685Z,40.70
2022-11-25T09:33:50.893Z,40.70
2022-11-25T09:36:19.787Z,40.70
2022-11-25T09:38:46.897Z,40.60
2022-11-25T09:42:05.567Z,40.60
2022-11-25T09:45:32.345Z,40.60
2022-11-25T09:48:29.384Z,40.70
2022-11-25T09:51:25.153Z,40.70
2022-11-25T09:53:55.167Z,40.60
2022-11-25T09:56:40.224Z,40.70
2022-11-25T09:59:32.118Z,40.50
2022-11-25T10:02:03.919Z,40.40
2022-11-25T10:04:37.911Z,40.30
2022-11-25T10:07:11.411Z,40.30
2022-11-25T10:09:38.681Z,40.30
2022-11-25T10:12:28.221Z,40.20
2022-11-25T10:15:06.744Z,40.20
2022-11-25T10:17:52.060Z,40.20
2022-11-25T10:20:33.136Z,40.20
2022-11-25T10:23:11.496Z,40.10
2022-11-25T10:25:45.875Z,40.10
2022-11-25T10:28:22.940Z,40.10
2022-11-25T10:31:06.460Z,40.30
2022-11-25T10:33:50.637Z,40.50
2022-11-25T10:36:26.101Z,40.40
2022-11-25T10:39:03.097Z,40.80
2022-11-25T10:41:42.067Z,40.10
2022-11-25T10:44:28.852Z,40.20
2022-11-25T10:47:16.711Z,40.30
2022-11-25T10:50:08.902Z,40.30
2022-11-25T10:52:42.856Z,40.30
2022-11-25T10:55:14.897Z,40.30
2022-11-25T10:57:43.153Z,40.20
2022-11-25T11:00:30.578Z,40.20
2022-11-25T11:03:00.220Z,40.10
2022-11-25T11:05:30.699Z,39.90
2022-11-25T11:08:28.124Z,39.80
2022-11-25T11:11:22.548Z,39.70
2022-11-25T11:13:57.382Z,39.60
2022-11-25T11:16:36.871Z,39.50
2022-11-25T11:19:05.281Z,39.60
2022-11-25T11:21:35.955Z,39.60
2022-11-25T11:24:21.212Z,39.60
2022-11-25T11:27:03.629Z,39.40
2022-11-25T11:29:30.702Z,39.40
2022-11-25T11:32:01.853Z,39.40
2022-11-25T11:35:03.836Z,39.30
2022-11-25T11:37:42.859Z,39.20
2022-11-25T11:40:32.309Z,39.20
2022-11-25T11:43:37.397Z,39.20
2022-11-25T11:46:26.972Z,39.20
2022-11-25T11:49:15.846Z,39.20
2022-11-25T11:52:09.124Z,39.10
2022-11-25T11:54:42.646Z,39.00
2022-11-25T11:57:34.656Z,39.00
2022-11-25T12:00:09.251Z,39.00
2022-11-25T12:02:53.537Z,39.20
2022-11-25T12:05:25.135Z,39.40
2022-11-25T12:08:14.138Z,39.50
2022-11-25T12:10:54.664Z,39.60
2022-11-25T12:13:46.941Z,39.60
2022-11-25T12:16:26.016Z,39.60
2022-11-25T12:19:05.960Z,39.60
2022-11-25T12:22:06.115Z,39.60
2022-11-25T12:25:08.876Z,39.60
2022-11-25T12:27:59.349Z,39.60
2022-11-25T12:30:35.593Z,39.60
2022-11-25T12:33:22.089Z,39.60
2022-11-25T12:36:05.901Z,39.50
2022-11-25T12:38:52.167Z,39.60
2022-11-25T12:41:31.129Z,39.60
2022-11-25T12:44:06.401Z,39.50
2022-11-25T12:46:44.849Z,39.50
2022-11-25T12:49:21.796Z,40.00
2022-11-25T12:52:12.127Z,39.10
2022-11-25T12:54:56.080Z,39.00
2022-11-25T12:58:01.225Z,39.10
2022-11-25T13:00:54.190Z,39.20
2022-11-25T13:03:59.468Z,39.20
2022-11-25T13:06:54.391Z,38.90
2022-11-25T13:09:50.348Z,38.80
2022-11-25T13:12:50.219Z,38.70
2022-11-25T13:15:28.309Z,38.70
2022-11-25T13:18:09.730Z,38.60
2022-11-25T13:20:44.582Z,38.60
2022-11-25T13:23:29.787Z,38.60
2022-11-25T13:26:37.179Z,38.60
2022-11-25T13:29:44.166Z,38.50
2022-11-25T13:32:34.520Z,38.50
2022-11-25T13:35:21.247Z,38.70
2022-11-25T13:37:49.593Z,38.80
2022-11-25T13:40:37.356Z,39.10
2022-11-25T13:43:05.221Z,39.30
2022-11-25T13:45:39.117Z,39.50
2022-11-25T13:48:22.928Z,39.70
2022-11-25T13:53:39.988Z,39.90
2022-11-25T13:56:26.111Z,40.20
2022-11-25T13:59:19.991Z,40.50
2022-11-25T14:01:54.943Z,41.00
2022-11-25T14:04:52.411Z,40.90
2022-11-25T14:07:46.830Z,40.60
2022-11-25T14:10:38.605Z,40.40
2022-11-25T14:13:39.186Z,40.20
2022-11-25T14:16:36.469Z,40.00
2022-11-25T14:19:51.559Z,39.90
2022-11-25T14:22:51.648Z,39.80
2022-11-25T14:25:26.811Z,39.70
2022-11-25T14:28:33.562Z,39.70
2022-11-25T14:31:14.757Z,39.50
2022-11-25T14:34:07.081Z,39.50
2022-11-25T14:36:40.380Z,39.40
2022-11-25T14:39:16.385Z,39.30
2022-11-25T14:41:56.547Z,39.30
2022-11-25T14:44:29.881Z,39.20
2022-11-25T14:46:58.855Z,39.10
2022-11-25T14:50:05.172Z,39.20
2022-11-25T14:52:36.567Z,39.20
2022-11-25T14:55:06.361Z,39.20
2022-11-25T14:57:37.117Z,39.20
2022-11-25T15:00:10.342Z,39.20
2022-11-25T15:02:41.193Z,39.20
2022-11-25T15:05:21.533Z,39.30
2022-11-25T15:08:12.138Z,39.50
2022-11-25T15:11:02.443Z,39.50
2022-11-25T15:13:42.021Z,39.60
2022-11-25T15:16:18.701Z,39.70
2022-11-25T15:18:53.335Z,39.80
2022-11-25T15:21:26.720Z,39.80
2022-11-25T15:23:53.839Z,39.90
2022-11-25T15:26:24.041Z,40.00
2022-11-25T15:28:58.052Z,40.10
2022-11-25T15:31:34.388Z,40.20
2022-11-25T15:34:05.169Z,40.20
2022-11-25T15:36:32.258Z,40.30
2022-11-25T15:39:26.011Z,40.30
2022-11-25T15:41:57.070Z,40.40
2022-11-25T15:44:30.434Z,40.50
2022-11-25T15:47:05.589Z,40.50
2022-11-25T15:49:35.847Z,40.60
2022-11-25T15:52:15.478Z,40.60
2022-11-25T15:54:46.983Z,41.20
2022-11-25T15:57:22.059Z,40.70
2022-11-25T16:00:09.634Z,40.80
2022-11-25T16:02:52.684Z,40.90
2022-11-25T16:05:31.862Z,41.00
2022-11-25T16:08:02.082Z,41.00
2022-11-25T16:10:33.334Z,41.00
2022-11-25T16:13:30.666Z,41.10
2022-11-25T16:16:22.577Z,41.20
2022-11-25T16:18:57.886Z,41.20
2022-11-25T16:21:38.806Z,41.30
2022-11-25T16:24:27.160Z,41.30
2022-11-25T16:27:00.883Z,41.40
2022-11-25T16:29:35.779Z,41.40
2022-11-25T16:32:14.845Z,41.40
2022-11-25T16:34:42.863Z,41.40
2022-11-25T16:37:09.898Z,41.40
2022-11-25T16:39:38.788Z,41.40
2022-11-25T16:42:07.063Z,41.50
2022-11-25T16:44:36.032Z,41.50
2022-11-25T16:47:03.477Z,41.60
2022-11-25T16:49:31.910Z,41.60
2022-11-25T16:51:59.010Z,41.60
2022-11-25T16:54:26.653Z,41.60
2022-11-25T16:56:54.843Z,41.70
2022-11-25T16:59:35.895Z,41.70
2022-11-25T17:02:05.685Z,41.80
2022-11-25T17:04:32.842Z,41.70
2022-11-25T17:09:47.108Z,41.80
2022-11-25T17:12:22.870Z,41.90
2022-11-25T17:14:50.592Z,41.90
2022-11-25T17:17:26.383Z,41.90
2022-11-25T17:19:53.888Z,41.90
2022-11-25T17:22:24.076Z,41.90
2022-11-25T17:24:52.063Z,42.50
2022-11-25T17:27:31.311Z,41.90
2022-11-25T17:30:01.756Z,42.00
2022-11-25T17:32:28.759Z,42.00
2022-11-25T17:34:56.004Z,42.00
2022-11-25T17:37:24.347Z,42.00
2022-11-25T17:39:53.691Z,42.00
2022-11-25T17:42:28.914Z,42.00
2022-11-25T17:44:56.253Z,42.00
2022-11-25T17:47:23.450Z,42.10
2022-11-25T17:49:50.577Z,42.10
2022-11-25T17:52:17.607Z,42.10
2022-11-25T17:54:47.370Z,42.10
2022-11-25T17:57:19.906Z,42.10
2022-11-25T17:59:46.954Z,42.00
2022-11-25T18:02:22.547Z,42.10
2022-11-25T18:04:50.073Z,42.10
2022-11-25T18:07:17.939Z,42.10
2022-11-25T18:09:45.617Z,42.10
2022-11-25T18:12:27.905Z,42.10
2022-11-25T18:14:56.031Z,42.20
2022-11-25T18:17:23.430Z,42.20
2022-11-25T18:19:55.048Z,42.20
2022-11-25T18:22:24.299Z,42.20
2022-11-25T18:24:52.286Z,42.20
2022-11-25T18:27:27.205Z,42.20
2022-11-25T18:29:55.792Z,42.20
2022-11-25T18:32:23.952Z,42.20
2022-11-25T18:34:52.021Z,42.20
2022-11-25T18:37:19.044Z,42.30
2022-11-25T18:39:46.732Z,42.30
2022-11-25T18:42:26.978Z,42.30
2022-11-25T18:44:55.363Z,42.30
2022-11-25T18:47:23.316Z,42.30
2022-11-25T18:49:55.532Z,42.30
2022-11-25T18:52:24.562Z,42.30
2022-11-25T18:54:51.841Z,42.30
2022-11-25T18:57:18.990Z,42.30
2022-11-25T18:59:55.945Z,42.30
2022-11-25T19:02:34.778Z,42.30
2022-11-25T19:05:02.804Z,42.30
2022-11-25T19:07:30.534Z,42.30
2022-11-25T19:09:57.715Z,42.30
2022-11-25T19:12:26.143Z,42.30
2022-11-25T19:14:53.214Z,42.30
2022-11-25T19:17:24.434Z,42.30
2022-11-25T19:19:51.478Z,42.40
2022-11-25T19:22:19.097Z,42.30
2022-11-25T19:24:46.326Z,42.30
2022-11-25T19:27:19.438Z,42.30
2022-11-25T19:29:47.624Z,42.30
2022-11-25T19:32:23.105Z,42.30
2022-11-25T19:34:57.601Z,42.30
2022-11-25T19:37:24.716Z,42.40
2022-11-25T19:39:53.514Z,42.30
2022-11-25T19:42:20.542Z,42.30
2022-11-25T19:44:47.889Z,42.40
2022-11-25T19:47:26.504Z,42.30
2022-11-25T19:49:57.037Z,42.40
2022-11-25T19:52:31.855Z,42.90
2022-11-25T19:54:59.109Z,42.40
2022-11-25T19:57:26.460Z,42.30
2022-11-25T19:59:53.509Z,42.40
2022-11-25T20:02:23.350Z,42.40
2022-11-25T20:04:55.931Z,42.30
2022-11-25T20:07:23.390Z,42.40
2022-11-25T20:09:56.180Z,42.30
2022-11-25T20:12:28.568Z,42.30
2022-11-25T20:14:55.812Z,42.30
2022-11-25T20:17:28.656Z,42.30
2022-11-25T20:19:59.728Z,42.30
2022-11-25T20:22:31.511Z,42.30
2022-11-25T20:25:00.480Z,42.30
2022-11-25T20:27:28.667Z,42.30
2022-11-25T20:29:55.953Z,42.30
2022-11-25T20:32:28.257Z,42.30
2022-11-25T20:34:59.187Z,42.30
2022-11-25T20:37:29.022Z,42.30
2022-11-25T20:40:00.074Z,42.30
2022-11-25T20:42:27.702Z,42.30
2022-11-25T20:44:57.675Z,42.30
2022-11-25T20:47:26.485Z,42.30
2022-11-25T20:49:54.081Z,42.30
2022-11-25T20:52:28.332Z,42.30
2022-11-25T20:54:55.432Z,42.30
2022-11-25T20:57:22.436Z,42.30
2022-11-25T20:59:49.519Z,42.30
2022-11-25T21:02:17.185Z,42.30
2022-11-25T21:04:44.275Z,42.30
2022-11-25T21:07:15.490Z,42.30
2022-11-25T21:09:42.947Z,42.30
2022-11-25T21:12:19.128Z,42.30
2022-11-25T21:14:47.258Z,42.30
2022-11-25T21:17:14.257Z,42.30
2022-11-25T21:19:41.613Z,42.30
2022-11-25T21:22:13.652Z,42.30
2022-11-25T21:24:42.399Z,42.30
2022-11-25T21:27:17.436Z,42.30
2022-11-25T21:29:45.860Z,42.30
2022-11-25T21:32:25.972Z,42.30
2022-11-25T21:34:55.002Z,42.30
2022-11-25T21:37:35.734Z,42.30
2022-11-25T21:40:05.514Z,42.30
2022-11-25T21:42:33.621Z,42.30
2022-11-25T21:45:00.764Z,42.30
2022-11-25T21:47:29.798Z,42.30
2022-11-25T21:49:57.672Z,42.30
2022-11-25T21:52:24.676Z,42.30
2022-11-25T21:54:52.705Z,42.80
2022-11-25T21:57:27.922Z,42.30
2022-11-25T21:59:55.034Z,42.20
2022-11-25T22:02:24.763Z,42.30
2022-11-25T22:04:52.171Z,42.20
2022-11-25T22:07:19.290Z,42.20
2022-11-25T22:09:46.477Z,42.30
2022-11-25T22:12:30.768Z,42.30
2022-11-25T22:14:59.593Z,42.30
2022-11-25T22:17:27.062Z,42.30
2022-11-25T22:19:54.543Z,42.30
2022-11-25T22:22:21.849Z,42.30
2022-11-25T22:24:48.980Z,42.80
2022-11-25T22:27:26.204Z,42.30
2022-11-25T22:29:54.473Z,42.30
2022-11-25T22:32:21.624Z,42.20
2022-11-25T22:34:48.716Z,42.30
2022-11-25T22:37:21.511Z,42.20
2022-11-25T22:39:48.930Z,42.20
2022-11-25T22:42:32.547Z,42.20
2022-11-25T22:45:02.008Z,42.20
2022-11-25T22:47:43.902Z,42.20
2022-11-25T22:50:29.312Z,42.20
2022-11-25T22:52:57.342Z,42.20
2022-11-25T22:55:31.361Z,42.20
2022-11-25T22:58:00.270Z,42.20
2022-11-25T23:00:31.258Z,42.20
2022-11-25T23:03:00.270Z,42.20
2022-11-25T23:05:32.972Z,42.20
2022-11-25T23:08:02.096Z,42.20
2022-11-25T23:10:31.694Z,42.20
2022-11-25T23:12:58.784Z,42.20
2022-11-25T23:15:26.010Z,42.20
2022-11-25T23:17:59.145Z,42.20
2022-11-25T23:20:31.249Z,42.20
2022-11-25T23:23:05.151Z,42.20
2022-11-25T23:25:32.172Z,42.30
2022-11-25T23:27:59.196Z,42.20
2022-11-25T23:30:26.189Z,42.20
2022-11-25T23:32:54.278Z,42.20
2022-11-25T23:35:35.939Z,42.20
2022-11-25T23:38:05.633Z,42.20
2022-11-25T23:40:32.956Z,42.20
2022-11-25T23:43:00.258Z,42.20
2022-11-25T23:45:27.759Z,42.30
2022-11-25T23:47:56.868Z,42.20
2022-11-25T23:50:29.120Z,42.30
2022-11-25T23:53:01.279Z,42.20
2022-11-25T23:55:34.761Z,42.20
2022-11-25T23:58:04.145Z,42.20
